VA3NNW-13 Weather Reports


Display with metric or nautical units.
time (UTC)temp
F
wind
direction
speed
MPH
gust
MPH
rain 1hr
in
rain 24hr
in
rain mn
in
humidity
%
barometer
mb
20191207214552 27 203 2.0 5.0 0.00 0.00 0.00 80
20191207214256 27 180 3.0 4.0 0.00 0.00 0.00 80
20191207213952 28 203 1.0 3.0 0.00 0.00 0.00 80
20191207213652 28 225 1.0 5.0 0.00 0.00 0.00 79
20191207213353 28 180 1.0 3.0 0.00 0.00 0.00 79
20191207213054 28 225 1.0 4.0 0.00 0.00 0.00 79
20191207212753 28 180 2.0 4.0 0.00 0.00 0.00 79
20191207212454 28 158 2.0 4.0 0.00 0.00 0.00 79
20191207212153 28 203 3.0 4.0 0.00 0.00 0.00 79
20191207211853 28 180 2.0 4.0 0.00 0.00 0.00 79
20191207211553 28 158 1.0 5.0 0.00 0.00 0.00 79
20191207211253 28 180 1.0 3.0 0.00 0.00 0.00 79
20191207210955 28 203 2.0 5.0 0.00 0.00 0.00 78
20191207210653 28 225 3.0 5.0 0.00 0.00 0.00 78
20191207210353 29 203 1.0 2.0 0.00 0.00 0.00 77
20191207210053 29 270 2.0 3.0 0.00 0.00 0.00 77
20191207205755 29 203 1.0 3.0 0.00 0.00 0.00 77
20191207205453 29 203 2.0 4.0 0.00 0.00 0.00 76
20191207205153 30 248 2.0 5.0 0.00 0.00 0.00 76
20191207204853 30 225 2.0 4.0 0.00 0.00 0.00 76
20191207204554 30 225 4.0 5.0 0.00 0.00 0.00 76
20191207204253 30 203 3.0 5.0 0.00 0.00 0.00 76
20191207203953 30 225 3.0 5.0 0.00 0.00 0.00 76
20191207203652 30 248 3.0 5.0 0.00 0.00 0.00 76
20191207203353 30 248 4.0 5.0 0.00 0.00 0.00 77
20191207203053 29 248 5.0 5.0 0.00 0.00 0.00 77
20191207202753 29 225 2.0 4.0 0.00 0.00 0.00 77
20191207202453 29 225 4.0 6.0 0.00 0.00 0.00 77
20191207202153 29 225 5.0 7.0 0.00 0.00 0.00 77
20191207201853 29 225 6.0 7.0 0.00 0.00 0.00 78
20191207201553 29 203 4.0 7.0 0.00 0.00 0.00 78
20191207201252 29 248 3.0 5.0 0.00 0.00 0.00 78
20191207200953 29 270 4.0 7.0 0.00 0.00 0.00 78
20191207200653 29 248 6.0 7.0 0.00 0.00 0.00 77
20191207200353 29 203 6.0 7.0 0.00 0.00 0.00 77
20191207200053 29 225 6.0 8.0 0.00 0.00 0.00 77
20191207195753 29 248 4.0 6.0 0.00 0.00 0.00 77
20191207195453 29 248 5.0 6.0 0.00 0.00 0.00 76
20191207195153 30 225 5.0 6.0 0.00 0.00 0.00 76
20191207194854 30 225 6.0 9.0 0.00 0.00 0.00 76
20191207194553 30 270 6.0 7.0 0.00 0.00 0.00 77
20191207194252 29 248 4.0 6.0 0.00 0.00 0.00 78
20191207193952 29 270 6.0 8.0 0.00 0.00 0.00 77
20191207193654 30 203 3.0 6.0 0.00 0.00 0.00 77
20191207193353 30 225 6.0 7.0 0.00 0.00 0.00 77
20191207193052 30 225 5.0 7.0 0.00 0.00 0.00 77
20191207192753 30 225 6.0 8.0 0.00 0.00 0.00 77
20191207192453 30 270 6.0 7.0 0.00 0.00 0.00 76
20191207192153 30 225 5.0 8.0 0.00 0.00 0.00 75
20191207191853 30 270 5.0 7.0 0.00 0.00 0.00 75
20191207191553 30 225 5.0 7.0 0.00 0.00 0.00 76
20191207191252 30 225 6.0 9.0 0.00 0.00 0.00 75
20191207190953 30 225 5.0 8.0 0.00 0.00 0.00 75
20191207190653 30 225 3.0 6.0 0.00 0.00 0.00 76
20191207190353 30 270 4.0 5.0 0.00 0.00 0.00 76
20191207190052 30 270 5.0 7.0 0.00 0.00 0.00 76
20191207185752 29 248 6.0 7.0 0.00 0.00 0.00 76
20191207185457 29 225 5.0 7.0 0.00 0.00 0.00 76
20191207185154 30 203 6.0 8.0 0.00 0.00 0.00 75
20191207184853 30 248 5.0 7.0 0.00 0.00 0.00 75
20191207184553 30 225 8.0 9.0 0.00 0.00 0.00 73
20191207184253 31 203 5.0 7.0 0.00 0.00 0.00 74
20191207183953 31 270 6.0 10.0 0.00 0.00 0.00 73
20191207183653 31 293 5.0 7.0 0.00 0.00 0.00 76
20191207183353 30 270 5.0 7.0 0.00 0.00 0.00 77
20191207183054 29 248 4.0 6.0 0.00 0.00 0.00 77
20191207182752 29 225 3.0 4.0 0.00 0.00 0.00 77
20191207182453 30 225 4.0 6.0 0.00 0.00 0.00 76
20191207182153 30 203 3.0 6.0 0.00 0.00 0.00 76
20191207181853 30 225 4.0 7.0 0.00 0.00 0.00 76
20191207181553 30 248 4.0 6.0 0.00 0.00 0.00 76
20191207181253 30 270 5.0 8.0 0.00 0.00 0.00 76
20191207180953 29 225 5.0 9.0 0.00 0.00 0.00 77
20191207180653 29 270 5.0 6.0 0.00 0.00 0.00 77
20191207180353 29 248 6.0 7.0 0.00 0.00 0.00 76
20191207180052 30 248 4.0 7.0 0.00 0.00 0.00 76
20191207175755 30 270 4.0 5.0 0.00 0.00 0.00 76
20191207175452 30 248 3.0 6.0 0.00 0.00 0.00 77
20191207175153 30 270 6.0 8.0 0.00 0.00 0.00 75
20191207174853 30 293 5.0 7.0 0.00 0.00 0.00 75
20191207174553 30 270 5.0 9.0 0.00 0.00 0.00 75
20191207174253 30 248 3.0 5.0 0.00 0.00 0.00 76
20191207173953 30 225 3.0 5.0 0.00 0.00 0.00 76
20191207173653 30 270 5.0 8.0 0.00 0.00 0.00 76
20191207173352 29 270 3.0 7.0 0.00 0.00 0.00 77
20191207173053 30 248 7.0 9.0 0.00 0.00 0.00 76
20191207172753 30 225 7.0 9.0 0.00 0.00 0.00 76
20191207172456 30 248 5.0 9.0 0.00 0.00 0.00 76
20191207172153 29 270 3.0 7.0 0.00 0.00 0.00 77
20191207171853 29 225 4.0 5.0 0.00 0.00 0.00 76
20191207171553 29 270 3.0 5.0 0.00 0.00 0.00 76
20191207171257 29 270 5.0 7.0 0.00 0.00 0.00 76
20191207170954 29 248 4.0 7.0 0.00 0.00 0.00 77
20191207170652 29 225 6.0 8.0 0.00 0.00 0.00 77
20191207170353 29 270 5.0 8.0 0.00 0.00 0.00 78
20191207170053 29 270 3.0 6.0 0.00 0.00 0.00 79
20191207165752 29 270 4.0 8.0 0.00 0.00 0.00 78
20191207165453 29 293 3.0 6.0 0.00 0.00 0.00 79
20191207165152 29 270 4.0 7.0 0.00 0.00 0.00 78
20191207164853 29 293 5.0 7.0 0.00 0.00 0.00 78
20191207164552 29 225 5.0 7.0 0.00 0.00 0.00 78
20191207164253 29 225 6.0 9.0 0.00 0.00 0.00 79
20191207163957 29 203 4.0 6.0 0.00 0.00 0.00 80
20191207163653 28 293 4.0 7.0 0.00 0.00 0.00 80
20191207163353 29 270 4.0 6.0 0.00 0.00 0.00 80
20191207163052 29 248 5.0 7.0 0.00 0.00 0.00 80
20191207162753 29 270 4.0 7.0 0.00 0.00 0.00 80
20191207162452 29 270 1.0 4.0 0.00 0.00 0.00 81
20191207162153 29 270 5.0 9.0 0.00 0.00 0.00 80
20191207161553 29 270 5.0 7.0 0.00 0.00 0.00 80
20191207161253 29 248 6.0 7.0 0.00 0.00 0.00 80
20191207160953 29 270 5.0 7.0 0.00 0.00 0.00 80
20191207160653 28 248 5.0 6.0 0.00 0.00 0.00 81
20191207160353 28 248 5.0 7.0 0.00 0.00 0.00 81
20191207160052 28 270 4.0 5.0 0.00 0.00 0.00 82
20191207155752 28 270 3.0 5.0 0.00 0.00 0.00 82
20191207155453 28 225 3.0 4.0 0.00 0.00 0.00 82
20191207155153 28 203 5.0 7.0 0.00 0.00 0.00 80
20191207154853 29 248 3.0 4.0 0.00 0.00 0.00 81
20191207154553 29 225 2.0 4.0 0.00 0.00 0.00 80
20191207154254 28 270 1.0 3.0 0.00 0.00 0.00 82
20191207153953 28 225 1.0 3.0 0.00 0.00 0.00 82
20191207153653 27 270 0.0 2.0 0.00 0.00 0.00 83
20191207153353 27 293 2.0 3.0 0.00 0.00 0.00 83
20191207153053 26 113 2.0 3.0 0.00 0.00 0.00 83
20191207152752 26 180 2.0 3.0 0.00 0.00 0.00 83
20191207152453 26 270 2.0 2.0 0.00 0.00 0.00 83
20191207152153 26 203 1.0 3.0 0.00 0.00 0.00 84
20191207151853 26 248 1.0 1.0 0.00 0.00 0.00 84
20191207151552 25 315 0.0 0.0 0.00 0.00 0.00 84
20191207151253 24 0 1.0 3.0 0.00 0.00 0.00 85
20191207150953 24 113 1.0 3.0 0.00 0.00 0.00 84
20191207150655 26 293 0.0 1.0 0.00 0.00 0.00 83
20191207150353 26 113 0.0 0.0 0.00 0.00 0.00 83
20191207150053 26 113 0.0 1.0 0.00 0.00 0.00 83
20191207145752 26 68 0.0 2.0 0.00 0.00 0.00 83
20191207145453 26 338 0.0 0.0 0.00 0.00 0.00 83
20191207145153 26 315 0.0 2.0 0.00 0.00 0.00 83
20191207144853 26 23 1.0 3.0 0.00 0.00 0.00 84
20191207144553 26 45 0.0 0.0 0.00 0.00 0.00 84
20191207144253 25 338 0.0 0.0 0.00 0.00 0.00 84
20191207143953 25 338 0.0 0.0 0.00 0.00 0.00 84
20191207143653 25 180 0.0 0.0 0.00 0.00 0.00 85
20191207143353 24 338 0.0 0.0 0.00 0.00 0.00 86
20191207143052 24 45 0.0 0.0 0.00 0.00 0.00 86
20191207142752 24 23 0.0 2.0 0.00 0.00 0.00 86
20191207142457 24 68 0.0 1.0 0.00 0.00 0.00 86
20191207142153 24 90 0.0 0.0 0.00 0.00 0.00 86
20191207141853 24 23 0.0 0.0 0.00 0.00 0.00 86
20191207141553 24 113 0.0 0.0 0.00 0.00 0.00 87
20191207141253 23 270 0.0 0.0 0.00 0.00 0.00 87
20191207140953 23 68 0.0 0.0 0.00 0.00 0.00 87
20191207140653 23 0 1.0 3.0 0.00 0.00 0.00 88
20191207140353 23 90 0.0 3.0 0.00 0.00 0.00 88
20191207140054 23 45 2.0 4.0 0.00 0.00 0.00 88
20191207135753 23 23 2.0 4.0 0.00 0.00 0.00 88
20191207135453 23 23 0.0 2.0 0.00 0.00 0.00 88
20191207135153 23 45 1.0 3.0 0.00 0.00 0.00 88
20191207134853 23 293 3.0 4.0 0.00 0.00 0.00 88
20191207134553 23 23 2.0 4.0 0.00 0.00 0.00 88
20191207134253 23 338 0.0 0.0 0.00 0.00 0.00 87
20191207133953 23 315 0.0 0.0 0.00 0.00 0.00 87
20191207133653 23 293 0.0 0.0 0.00 0.00 0.00 87
20191207133353 23 270 0.0 0.0 0.00 0.00 0.00 87
20191207133053 23 270 0.0 0.0 0.00 0.00 0.00 87
20191207132753 23 270 0.0 0.0 0.00 0.00 0.00 87
20191207132453 23 270 0.0 0.0 0.00 0.00 0.00 87
20191207132153 23 270 0.0 0.0 0.00 0.00 0.00 87
20191207131853 23 270 0.0 0.0 0.00 0.00 0.00 87
20191207131552 23 270 0.0 0.0 0.00 0.00 0.00 87
20191207131253 23 270 0.0 0.0 0.00 0.00 0.00 87
20191207130953 23 270 0.0 0.0 0.00 0.00 0.00 87
20191207130653 23 270 0.0 0.0 0.00 0.00 0.00 87
20191207130354 23 270 0.0 1.0 0.00 0.00 0.00 87
20191207130053 23 270 0.0 2.0 0.00 0.00 0.00 87
20191207125753 23 270 0.0 1.0 0.00 0.00 0.00 87
20191207125452 23 270 0.0 0.0 0.00 0.00 0.00 87
20191207125155 23 270 0.0 2.0 0.00 0.00 0.00 87
20191207124853 23 293 1.0 2.0 0.00 0.00 0.00 87
20191207124552 23 293 1.0 4.0 0.00 0.00 0.00 87
20191207124253 23 270 3.0 4.0 0.00 0.00 0.00 87
20191207123953 23 270 1.0 4.0 0.00 0.00 0.00 87
20191207123652 23 270 3.0 7.0 0.00 0.00 0.00 87
20191207123353 23 270 1.0 4.0 0.00 0.00 0.00 87
20191207123053 23 270 3.0 5.0 0.00 0.00 0.00 87
20191207122753 23 270 3.0 5.0 0.00 0.00 0.00 87
20191207122454 23 270 1.0 4.0 0.00 0.00 0.00 87
20191207122153 23 270 2.0 4.0 0.00 0.00 0.00 87
20191207121853 22 270 2.0 5.0 0.00 0.00 0.00 87
20191207121553 22 270 2.0 4.0 0.00 0.00 0.00 87
20191207121253 22 270 1.0 4.0 0.00 0.00 0.00 87
20191207120957 22 270 1.0 3.0 0.00 0.00 0.00 87
20191207120653 22 270 2.0 4.0 0.00 0.00 0.00 86
20191207120353 22 293 1.0 4.0 0.00 0.00 0.00 86
20191207120055 22 270 0.0 2.0 0.00 0.00 0.00 86
20191207115754 22 315 1.0 4.0 0.00 0.00 0.00 86
20191207115453 23 270 0.0 3.0 0.00 0.00 0.00 86
20191207115153 23 338 1.0 4.0 0.00 0.00 0.00 86
20191207114852 23 315 2.0 3.0 0.00 0.00 0.00 86
20191207114554 23 270 1.0 3.0 0.00 0.00 0.00 86
20191207114253 23 203 1.0 5.0 0.00 0.00 0.00 86
20191207113953 23 270 3.0 6.0 0.00 0.00 0.00 86
20191207113653 23 248 2.0 5.0 0.00 0.00 0.00 86
20191207113353 23 180 3.0 5.0 0.00 0.00 0.00 86
20191207113052 23 293 2.0 4.0 0.00 0.00 0.00 85
20191207112753 23 270 3.0 4.0 0.00 0.00 0.00 85
20191207112453 23 225 3.0 7.0 0.00 0.00 0.00 85
20191207112152 23 270 2.0 4.0 0.00 0.00 0.00 85
20191207111853 23 270 3.0 4.0 0.00 0.00 0.00 85
20191207111553 23 270 4.0 6.0 0.00 0.00 0.00 85
20191207111254 23 225 5.0 7.0 0.00 0.00 0.00 85
20191207110952 23 270 5.0 8.0 0.00 0.00 0.00 85
20191207110353 23 293 3.0 5.0 0.00 0.00 0.00 85
20191207110053 23 270 2.0 6.0 0.00 0.00 0.00 85
20191207105753 23 293 5.0 6.0 0.00 0.00 0.00 85
20191207105453 23 225 4.0 7.0 0.00 0.00 0.00 85
20191207105152 23 270 4.0 5.0 0.00 0.00 0.00 85
20191207104855 23 270 3.0 7.0 0.00 0.00 0.00 85
20191207104553 23 270 4.0 6.0 0.00 0.00 0.00 85
20191207104253 23 270 3.0 5.0 0.00 0.00 0.00 85
20191207103952 23 248 5.0 9.0 0.00 0.00 0.00 85
20191207103655 23 270 4.0 7.0 0.00 0.00 0.00 85
20191207103354 23 270 4.0 5.0 0.00 0.00 0.00 85
20191207103052 23 293 6.0 8.0 0.00 0.00 0.00 85
20191207102753 22 270 4.0 7.0 0.00 0.00 0.00 85
20191207102452 22 270 5.0 7.0 0.00 0.00 0.00 85
20191207102153 22 293 5.0 7.0 0.00 0.00 0.00 85
20191207101853 22 225 5.0 7.0 0.00 0.00 0.00 85
20191207101553 22 270 5.0 9.0 0.00 0.00 0.00 85
20191207101253 22 315 2.0 5.0 0.00 0.00 0.00 84
20191207100953 22 270 4.0 7.0 0.00 0.00 0.00 84
20191207100653 22 270 5.0 8.0 0.00 0.00 0.00 84
20191207100353 22 338 5.0 8.0 0.00 0.00 0.00 84
20191207100052 22 225 4.0 7.0 0.00 0.00 0.00 84
20191207095753 22 270 6.0 7.0 0.00 0.00 0.00 84
20191207095456 22 248 5.0 6.0 0.00 0.00 0.00 84
20191207095153 22 293 4.0 5.0 0.00 0.00 0.00 84
20191207094853 22 270 5.0 5.0 0.00 0.00 0.00 84
20191207094553 22 270 3.0 5.0 0.00 0.00 0.00 83
20191207094254 22 270 4.0 5.0 0.00 0.00 0.00 83
20191207093953 22 293 6.0 9.0 0.00 0.00 0.00 83
20191207093653 22 248 5.0 7.0 0.00 0.00 0.00 83
20191207093353 23 248 5.0 9.0 0.00 0.00 0.00 83
20191207093054 23 270 4.0 6.0 0.00 0.00 0.00 83
20191207092753 23 270 5.0 6.0 0.00 0.00 0.00 83
20191207092453 23 293 4.0 6.0 0.00 0.00 0.00 83
20191207092152 23 270 5.0 7.0 0.00 0.00 0.00 83
20191207091853 23 293 3.0 6.0 0.00 0.00 0.00 83
20191207091552 23 225 4.0 6.0 0.00 0.00 0.00 83
20191207091253 23 270 3.0 5.0 0.00 0.00 0.00 83
20191207090952 23 270 5.0 6.0 0.00 0.00 0.00 83
20191207090352 23 315 4.0 8.0 0.00 0.00 0.00 83
20191207090053 23 293 5.0 7.0 0.00 0.00 0.00 83
20191207085753 23 270 5.0 6.0 0.00 0.00 0.00 83
20191207085452 23 270 3.0 6.0 0.00 0.00 0.00 83
20191207085153 23 293 1.0 4.0 0.00 0.00 0.00 83
20191207084853 24 225 4.0 7.0 0.00 0.00 0.00 83
20191207084553 24 0 6.0 9.0 0.00 0.00 0.00 83
20191207083953 24 203 5.0 8.0 0.00 0.00 0.00 83
20191207083653 24 248 4.0 5.0 0.00 0.00 0.00 83
20191207083354 24 293 3.0 6.0 0.00 0.00 0.00 83
20191207083053 24 293 4.0 7.0 0.00 0.00 0.00 83
20191207082753 24 270 7.0 12.0 0.00 0.00 0.00 83
20191207082453 24 270 6.0 9.0 0.00 0.00 0.00 83
20191207082154 24 248 6.0 9.0 0.00 0.00 0.00 83
20191207081853 24 270 5.0 7.0 0.00 0.00 0.00 83
20191207081553 24 225 4.0 9.0 0.00 0.00 0.00 83
20191207081253 25 315 4.0 5.0 0.00 0.00 0.00 83
20191207080953 25 293 5.0 7.0 0.00 0.00 0.00 83
20191207080653 25 270 8.0 10.0 0.00 0.00 0.00 83
20191207080353 25 248 6.0 9.0 0.00 0.00 0.00 83
20191207080053 25 270 6.0 9.0 0.00 0.00 0.00 83
20191207075752 25 315 7.0 9.0 0.00 0.00 0.00 83
20191207075453 25 270 5.0 9.0 0.00 0.00 0.00 83
20191207075153 25 248 5.0 9.0 0.00 0.00 0.00 83
20191207074853 25 248 6.0 9.0 0.00 0.00 0.00 83
20191207074553 25 225 6.0 9.0 0.00 0.00 0.00 83
20191207074253 25 270 5.0 8.0 0.00 0.00 0.00 83
20191207073958 25 248 5.0 7.0 0.00 0.00 0.00 83
20191207073653 25 293 5.0 9.0 0.00 0.00 0.00 83
20191207073353 25 270 6.0 10.0 0.00 0.00 0.00 83
20191207073052 25 270 5.0 8.0 0.00 0.00 0.00 83
20191207072753 25 293 6.0 9.0 0.00 0.00 0.00 83
20191207072453 25 23 5.0 8.0 0.00 0.00 0.00 83
20191207072152 25 293 5.0 7.0 0.00 0.00 0.00 83
20191207071853 25 270 7.0 11.0 0.00 0.00 0.00 83
20191207071554 25 270 5.0 10.0 0.00 0.00 0.00 83
20191207071253 25 225 6.0 8.0 0.00 0.00 0.00 83
20191207070952 25 270 6.0 8.0 0.00 0.00 0.00 83
20191207070653 25 270 6.0 8.0 0.00 0.00 0.00 83
20191207070353 25 270 6.0 9.0 0.00 0.00 0.00 83
20191207070052 25 293 7.0 12.0 0.00 0.00 0.00 83
20191207065754 25 270 7.0 8.0 0.00 0.00 0.00 83
20191207065453 25 0 6.0 12.0 0.00 0.00 0.00 83
20191207065153 25 225 4.0 8.0 0.00 0.00 0.00 84
20191207064853 25 293 5.0 7.0 0.00 0.00 0.00 84
20191207064553 25 270 6.0 8.0 0.00 0.00 0.00 84
20191207064253 25 270 5.0 9.0 0.00 0.00 0.00 84
20191207063952 25 270 6.0 7.0 0.00 0.00 0.00 84
20191207063353 25 293 6.0 8.0 0.00 0.00 0.00 84
20191207063053 24 293 6.0 8.0 0.00 0.00 0.00 84
20191207062754 24 270 7.0 9.0 0.00 0.00 0.00 84
20191207062452 24 270 5.0 8.0 0.00 0.00 0.00 84
20191207062153 24 270 5.0 9.0 0.00 0.00 0.00 84
20191207061853 24 315 6.0 7.0 0.00 0.00 0.00 84
20191207061553 24 225 5.0 10.0 0.00 0.00 0.00 84
20191207061253 24 225 4.0 6.0 0.00 0.00 0.00 84
20191207060952 24 225 5.0 8.0 0.00 0.00 0.00 84
20191207060653 24 248 5.0 8.0 0.00 0.00 0.00 84
20191207060353 24 270 4.0 9.0 0.00 0.00 0.00 84
20191207060053 24 270 5.0 7.0 0.00 0.00 0.00 84
20191207055753 23 270 5.0 6.0 0.00 0.00 0.00 85
20191207055453 23 293 4.0 6.0 0.00 0.00 0.00 85
20191207055153 23 270 5.0 7.0 0.00 0.00 0.00 85
20191207054853 23 248 4.0 7.0 0.00 0.00 0.00 85
20191207054553 23 270 5.0 7.0 0.00 0.00 0.00 85
20191207054253 23 248 5.0 10.0 0.00 0.00 0.00 85
20191207053955 23 270 5.0 6.0 0.00 0.00 0.00 85
20191207053653 23 270 4.0 6.0 0.00 0.00 0.00 86
20191207053352 22 270 4.0 6.0 0.00 0.00 0.00 86
20191207053054 22 270 4.0 6.0 0.00 0.00 0.00 86
20191207052757 22 270 5.0 7.0 0.00 0.00 0.00 86
20191207052453 22 225 4.0 5.0 0.00 0.00 0.00 86
20191207052153 22 270 4.0 5.0 0.00 0.00 0.00 86
20191207051853 22 270 3.0 4.0 0.00 0.00 0.00 86
20191207051553 22 225 5.0 6.0 0.00 0.00 0.00 86
20191207051253 22 248 4.0 5.0 0.00 0.00 0.00 86
20191207050953 22 270 3.0 6.0 0.00 0.00 0.00 86
20191207050653 22 270 4.0 6.0 0.00 0.00 0.00 86
20191207050052 23 225 3.0 6.0 0.00 0.00 0.00 86
20191207045457 23 225 3.0 4.0 0.00 0.00 0.00 86
20191207045153 23 270 5.0 6.0 0.00 0.00 0.00 86
20191207044853 23 270 5.0 6.0 0.00 0.00 0.00 86
20191207044552 23 270 4.0 6.0 0.00 0.00 0.00 86
20191207044253 23 270 4.0 5.0 0.00 0.00 0.00 86
20191207043953 23 270 2.0 4.0 0.00 0.00 0.00 86
20191207043653 23 225 4.0 7.0 0.00 0.00 0.00 86
20191207043353 23 248 3.0 5.0 0.00 0.00 0.00 86
20191207043053 23 293 1.0 4.0 0.00 0.00 0.00 86
20191207042752 23 293 3.0 5.0 0.00 0.00 0.00 86
20191207042453 23 270 3.0 5.0 0.00 0.00 0.00 86
20191207042153 23 270 3.0 5.0 0.00 0.00 0.00 86
20191207041853 23 270 4.0 6.0 0.00 0.00 0.00 86
20191207041553 23 270 4.0 6.0 0.00 0.00 0.00 87
20191207041253 23 293 3.0 5.0 0.00 0.00 0.00 87
20191207040953 23 225 3.0 6.0 0.00 0.00 0.00 87
20191207040653 23 225 2.0 5.0 0.00 0.00 0.00 87
20191207040353 23 315 2.0 4.0 0.00 0.00 0.00 87
20191207040053 23 293 3.0 5.0 0.00 0.00 0.00 87
20191207035754 23 270 4.0 5.0 0.00 0.00 0.00 87
20191207035453 23 270 1.0 2.0 0.00 0.00 0.00 88
20191207035153 23 293 2.0 5.0 0.00 0.00 0.00 88
20191207034853 24 270 2.0 4.0 0.00 0.00 0.00 88
20191207034553 24 248 1.0 5.0 0.00 0.00 0.00 88
20191207034253 24 270 2.0 5.0 0.00 0.00 0.00 88
20191207033952 24 315 3.0 6.0 0.00 0.00 0.00 88
20191207033652 24 270 3.0 5.0 0.00 0.00 0.00 88
20191207033353 24 270 2.0 4.0 0.00 0.00 0.00 88
20191207033053 24 270 2.0 6.0 0.00 0.00 0.00 88
20191207032753 24 293 2.0 5.0 0.00 0.00 0.00 88
20191207032453 24 270 1.0 3.0 0.00 0.00 0.00 88
20191207032153 24 270 1.0 4.0 0.00 0.00 0.00 88
20191207031853 24 293 2.0 5.0 0.00 0.00 0.00 88
20191207031553 24 270 2.0 5.0 0.00 0.00 0.00 88
20191207031253 24 293 2.0 4.0 0.00 0.00 0.00 88
20191207030953 24 270 2.0 5.0 0.00 0.00 0.00 88
20191207030653 24 203 1.0 3.0 0.00 0.00 0.00 88
20191207030353 24 293 1.0 2.0 0.00 0.00 0.00 88
20191207030052 24 270 2.0 4.0 0.00 0.00 0.00 88
20191207025753 24 293 0.0 2.0 0.00 0.00 0.00 88
20191207025453 24 270 0.0 2.0 0.00 0.00 0.00 88
20191207025152 24 270 1.0 3.0 0.00 0.00 0.00 88
20191207024853 24 270 1.0 4.0 0.00 0.00 0.00 88
20191207024553 24 293 1.0 4.0 0.00 0.00 0.00 88
20191207024253 24 293 1.0 3.0 0.00 0.00 0.00 88
20191207023957 24 293 0.0 2.0 0.00 0.00 0.00 88
20191207023653 24 0 1.0 1.0 0.00 0.00 0.00 87
20191207023353 24 315 1.0 3.0 0.00 0.00 0.00 87
20191207023052 24 270 2.0 4.0 0.00 0.00 0.00 87
20191207022753 24 270 1.0 4.0 0.00 0.00 0.00 87
20191207022453 24 315 2.0 3.0 0.00 0.00 0.00 86
20191207022153 24 293 2.0 4.0 0.00 0.00 0.00 86
20191207021853 24 315 1.0 3.0 0.00 0.00 0.00 86
20191207021554 25 293 0.0 0.0 0.00 0.00 0.00 86
20191207021252 25 293 2.0 4.0 0.00 0.00 0.00 86
20191207020653 25 293 1.0 2.0 0.00 0.00 0.00 85
20191207020353 25 315 0.0 0.0 0.00 0.00 0.00 85
20191207020053 25 293 5.0 8.0 0.00 0.00 0.00 85
20191207015753 25 270 6.0 9.0 0.00 0.00 0.00 85
20191207015453 26 315 4.0 11.0 0.00 0.00 0.00 85
20191207015153 26 270 5.0 7.0 0.00 0.00 0.00 84
20191207014853 26 293 5.0 10.0 0.00 0.00 0.00 84
20191207014553 26 270 5.0 8.0 0.00 0.00 0.00 84
20191207014253 26 293 5.0 10.0 0.00 0.00 0.00 84
20191207013953 0 293 2.0 2.0 0.00 0.00 0.00
20191207013653 26 270 5.0 7.0 0.00 0.00 0.00 83
20191207013352 26 270 3.0 9.0 0.00 0.00 0.00 82
20191207013053 26 270 5.0 8.0 0.00 0.00 0.00 82
20191207012753 26 270 5.0 7.0 0.00 0.00 0.00 81
20191207012453 26 270 3.0 6.0 0.00 0.00 0.00 81
20191207011853 26 270 4.0 6.0 0.00 0.00 0.00 81
20191207011553 27 293 4.0 5.0 0.00 0.00 0.00 81
20191207011253 27 338 6.0 9.0 0.00 0.00 0.00 81
20191207010953 27 270 4.0 8.0 0.00 0.00 0.00 81
20191207010653 27 270 6.0 8.0 0.00 0.00 0.00 81
20191207010353 27 158 4.0 6.0 0.00 0.00 0.00 81
20191207010053 27 270 5.0 7.0 0.00 0.00 0.00 81
20191207005753 27 203 5.0 10.0 0.00 0.00 0.00 81
20191207005453 27 270 5.0 7.0 0.00 0.00 0.00 80
20191207005153 28 270 5.0 8.0 0.00 0.00 0.00 80
20191207004853 28 270 4.0 7.0 0.00 0.00 0.00 80
20191207004553 28 293 4.0 7.0 0.00 0.00 0.00 80
20191207004253 28 293 4.0 7.0 0.00 0.00 0.00 81
20191207003953 28 338 5.0 7.0 0.00 0.00 0.00 81
20191207003652 28 315 4.0 7.0 0.00 0.00 0.00 81
20191207003353 28 270 4.0 10.0 0.00 0.00 0.00 81
20191207003053 28 293 6.0 9.0 0.00 0.00 0.00 80
20191207002753 28 270 6.0 9.0 0.00 0.00 0.00 80
20191207002458 28 293 4.0 6.0 0.00 0.00 0.00 80
20191207002153 28 293 6.0 11.0 0.00 0.00 0.00 80
20191207001853 28 293 6.0 15.0 0.00 0.00 0.00 81
20191207001553 28 338 7.0 12.0 0.00 0.00 0.00 81
20191207001253 28 338 6.0 8.0 0.00 0.00 0.00 81
20191207000952 28 270 8.0 13.0 0.00 0.00 0.00 81
20191207000653 28 293 7.0 13.0 0.00 0.00 0.00 81
20191207000353 28 315 8.0 14.0 0.00 0.00 0.00 81
20191207000055 28 270 8.0 11.0 0.00 0.00 0.00 81
20191206235753 28 0 9.0 15.0 0.00 0.00 0.00 81
20191206235453 28 293 7.0 9.0 0.00 0.00 0.00 82
20191206235153 28 315 6.0 9.0 0.00 0.00 0.00 82
20191206234853 29 293 9.0 12.0 0.00 0.00 0.00 82
20191206234553 29 315 10.0 15.0 0.00 0.00 0.00 82
20191206234253 29 293 7.0 11.0 0.00 0.00 0.00 83
20191206233953 29 270 9.0 17.0 0.00 0.00 0.00 83
20191206233653 29 270 7.0 8.0 0.00 0.00 0.00 84
20191206233353 29 293 9.0 13.0 0.00 0.00 0.00 84
20191206233053 29 270 6.0 12.0 0.00 0.00 0.00 85
20191206232753 29 270 6.0 13.0 0.00 0.00 0.00 85
20191206232453 29 270 5.0 6.0 0.00 0.00 0.00 86
20191206232152 29 270 6.0 15.0 0.00 0.00 0.00 86
20191206231853 29 225 7.0 13.0 0.00 0.00 0.00 86
20191206231553 29 270 5.0 8.0 0.00 0.00 0.00 87
20191206231253 29 338 5.0 8.0 0.00 0.00 0.00 87
20191206230952 29 270 6.0 8.0 0.00 0.00 0.00 88
20191206230657 29 338 5.0 8.0 0.00 0.00 0.00 89
20191206230355 29 0 6.0 9.0 0.00 0.00 0.00 89
20191206230054 28 270 5.0 8.0 0.00 0.00 0.00 90
20191206225753 28 248 6.0 10.0 0.00 0.00 0.00 90
20191206225454 28 270 4.0 8.0 0.00 0.00 0.00 90
20191206224853 28 270 4.0 6.0 0.00 0.00 0.00 90
20191206224552 28 203 3.0 7.0 0.00 0.00 0.00 90
20191206224253 28 338 4.0 6.0 0.00 0.00 0.00 90
20191206223953 28 270 5.0 7.0 0.00 0.00 0.00 89
20191206223653 28 270 3.0 6.0 0.00 0.00 0.00 88
20191206223353 28 45 5.0 8.0 0.00 0.00 0.00 88
20191206223053 28 270 3.0 5.0 0.00 0.00 0.00 88
20191206222752 28 270 2.0 8.0 0.00 0.00 0.00 88
20191206222453 28 270 4.0 7.0 0.00 0.00 0.00 88
20191206222152 28 270 4.0 6.0 0.00 0.00 0.00 88
20191206221853 28 270 3.0 5.0 0.00 0.00 0.00 88
20191206221553 28 270 3.0 6.0 0.00 0.00 0.00 88
20191206221253 28 270 4.0 5.0 0.00 0.00 0.00 88
20191206220957 28 270 2.0 5.0 0.00 0.00 0.00 88
20191206220653 28 270 2.0 4.0 0.00 0.00 0.00 88
20191206220352 28 270 2.0 4.0 0.00 0.00 0.00 88
20191206220053 28 248 2.0 3.0 0.00 0.00 0.00 88
20191206215754 28 293 3.0 4.0 0.00 0.00 0.00 87
20191206215453 28 270 3.0 6.0 0.00 0.00 0.00 87
20191206215153 28 270 4.0 7.0 0.00 0.00 0.00 86
20191206214853 28 270 3.0 5.0 0.00 0.00 0.00 84